Aviation Digital Data Service (ADDS)

Output produced by METARs form (1059 UTC 19 January 2019)
found at http://www.aviationweather.gov/metar/data/
 
LFLB 191030Z AUTO VRB02KT CAVOK 02/M01 Q1016 NOSIG
TAF AMD LFLB 190654Z 1906/2006 18004KT 6000 NSC 
     TEMPO 1906/1909 0400 FZFG 
     PROB40 
     TEMPO 1906/1909 BKN030 
     BECMG 1909/1911 CAVOK 
     PROB40 
     TEMPO 2003/2006 3000 BR
       
LFBZ 191030Z AUTO 20005KT 120V270 9999 FEW056 OVC080 12/07 Q1014 NOSIG
TAF LFBZ 190500Z 1906/2006 21005KT 9999 BKN060 
     PROB30 
     TEMPO 1906/1908 4000 -SHRA BKN014 BKN020TCU 
     TEMPO 1919/2002 -RA BKN025 
     TEMPO 2003/2006 4000 SHRA BKN025TCU
       
LFRT 191030Z AUTO 24007KT 9999 BKN041 BKN064 BKN086 08/06 Q1007
LFRM 191030Z AUTO VRB02KT 1100 BR OVC002/// ///TCU 04/04 Q1010 TEMPO 4000 SHRA BECMG BKN008 BKN020
TAF AMD LFRM 190743Z 1907/2006 12005KT 9999 BKN008 BKN020 
     TEMPO 1908/1910 3000 BR BKN003 
     TEMPO 1909/2006 4000 SHRA
       
LFLW 191030Z AUTO 00000KT 7000 -RA OVC018 02/M01 Q1013 NOSIG
TAF LFLW 190800Z 1909/1918 11005KT 9999 SCT015 BKN025 
     BECMG 1916/1918 4000 -RA OVC010
       
LFLC 191030Z AUTO 16007KT 120V210 CAVOK 02/M03 Q1013 NOSIG
TAF LFLC 190800Z 1909/2009 18007KT 9999 FEW040 
     BECMG 1912/1914 SCT040 BKN080 
     BECMG 2003/2005 RA SCT020 OVC030
       
LFOA 191030Z AUTO 13006KT 6000 -SN OVC020 00/M00 Q1012
LFSB 191030Z VRB03KT CAVOK M00/M04 Q1016 NOSIG
TAF AMD LFSB 190728Z 1907/2006 VRB03KT 6000 NSC 
     FM191100 32003KT CAVOK 
     BECMG 2001/2004 BKN014 
     PROB40 
     TEMPO 2004/2006 1200 -SN BKN005
       
LFQB 191030Z AUTO 15005KT CAVOK 00/M02 Q1014
LFBL 191030Z AUTO 17009KT 4300 -RA BR OVC003/// ///TCU 04/03 Q1012 TEMPO 2000 -RADZ OVC002
TAF LFBL 190500Z 1906/2006 16007KT 4000 BR OVC004 
     TEMPO 1906/2006 2000 -RADZ OVC002 
     PROB40 
     TEMPO 1906/1909 0700 FG VV///
       
LFBI 191030Z AUTO 19011KT 9999 OVC004 06/06 Q1011 TEMPO 1500 -RADZ
TAF LFBI 190500Z 1906/2006 18006KT 9999 BKN010 
     TEMPO 1906/2006 1500 -RADZ OVC003
       
LFBO 191030Z AUTO 15004KT 9999 SCT020 OVC025 04/03 Q1015 NOSIG
TAF LFBO 190500Z 1906/2012 15006KT 6000 SCT020 BKN040 
     TEMPO 1906/1910 1200 BCFG BKN001 
     PROB30 
     TEMPO 1906/1909 0700 FG VV/// 
     BECMG 2000/2002 VRB03KT 
     TEMPO 2006/2010 4000 -RA BKN014 
     BECMG 2010/2012 28008KT
       
LFMH 191030Z AUTO 16009KT CAVOK 03/M05 Q1014 NOSIG
TAF LFMH 190800Z 1909/2009 VRB02KT CAVOK 
     BECMG 1915/1918 SCT040 OVC060 
     BECMG 1921/1923 20012KT
       
LFAQ 191030Z AUTO 14012KT 9000 NSC 00/M02 Q1012 NOSIG
TAF LFAQ 190800Z 1909/1918 13010KT CAVOK 
     TEMPO 1915/1918 3000 SN OVC008
       
LFOJ 191030Z AUTO 15009KT 2500 1200 R25/1800D BR OVC004 01/M00 Q1010
LFBU 191030Z AUTO 16007KT 6000 OVC003/// ///TCU 06/06 Q1012 TEMPO 4000 -RA OVC006
TAF AMD LFBU 190948Z 1909/2006 17008KT 9999 BKN015 
     TEMPO 1909/1913 4000 -RA OVC006 
     PROB40 
     TEMPO 1909/1912 3000 BR OVC002 
     TEMPO 1920/2006 4000 -RA OVC005
       
LFLY 191030Z AUTO VRB03KT 5000 BR FEW005 M01/M02 Q1015 NOSIG
TAF AMD LFLY 190841Z 1908/2006 VRB02KT 0400 FZFG VV/// 
     BECMG 1910/1912 CAVOK 
     BECMG 1921/1924 19005KT 
     BECMG 2003/2006 BKN040
       
LFKJ 191030Z AUTO VRB02KT CAVOK 09/05 Q1014 NOSIG
TAF LFKJ 190800Z 1909/2009 06006KT 9999 FEW040 BKN250 
     BECMG 1910/1912 22005KT 
     TEMPO 1909/1921 BKN035 BKN100
       
LFMO 191030Z AUTO 31003KT 270V360 CAVOK 06/M01 Q1015 NOSIG
TAF LFMO 190800Z 1909/2009 VRB02KT CAVOK 
     TEMPO 1922/2003 3000 BR 
     BECMG 2007/2009 5000 -RA
       
LFRK 191030Z AUTO 13006KT 9999 OVC006 03/02 Q1009 NOSIG
TAF LFRK 190800Z 1909/1918 16010KT 9999 BKN015 
     TEMPO 1909/1918 OVC007 
     TEMPO 1914/1918 4000 SHRA BKN005 BKN015TCU 
     BECMG 1916/1918 19005KT
       
LFMV 191030Z AUTO VRB03KT CAVOK 05/M01 Q1015 NOSIG
TAF LFMV 190800Z 1909/2009 VRB05KT CAVOK 
     TEMPO 1921/2007 4000 BR 
     BECMG 2000/2002 BKN014
       
LFBC 191030Z AUTO 19007KT 9999 FEW018/// BKN054/// BKN076/// ///CB 10/08 Q1013
LFLU 191030Z AUTO VRB02KT CAVOK 02/M01 Q1015
LFPG 191030Z 13011KT CAVOK 00/M03 Q1012 NOSIG
TAF AMD LFPG 190934Z 1909/2012 12005KT CAVOK TX02/1914Z TNM00/1910Z 
     BECMG 1911/1914 BKN007 
     PROB40 
     TEMPO 1911/1916 4000 -SNRA BKN003 
     PROB30 
     TEMPO 1911/1913 -FZRA 
     PROB30 
     TEMPO 1911/1916 2000 -SN BKN002 
     BECMG 1917/1920 4000 DZRA BKN003 
     PROB30 
     TEMPO 1917/1921 2000 -RASN 
     TEMPO 2008/2012 1500 -DZRA BKN002
       
LFBG 191030Z AUTO 16003KT 120V200 9999 OVC005/// ///TCU 07/07 Q1012
LFOC 191030Z AUTO 15004KT 3400 BR OVC003 00/00 Q1011
LFPT 191030Z AUTO 13007KT 9999 ///TCU 00/M02 Q1012
LFMN 191030Z 33007KT 9999 BKN063 BKN200 08/M01 Q1014 NOSIG
TAF LFMN 190800Z 1909/2015 34009KT 9999 SCT063 BKN200 
     BECMG 1911/1913 24010KT 
     PROB30 
     TEMPO 1916/1922 4000 RA BKN020 
     BECMG 1919/1921 34008KT 
     BECMG 2011/2013 14010KT
       
LFLX 191030Z AUTO 16003KT 130V210 9999 FEW011 BKN036 OVC150 04/04 Q1011 NOSIG
TAF AMD LFLX 190825Z 1908/2012 14008KT 9999 BKN030 
     TEMPO 1908/1909 4000 BR BKN014 
     PROB30 
     TEMPO 1908/1909 2000 -SNRA BKN008 
     TEMPO 1916/2006 3000 -SHRA SCT010 BKN025 
     TEMPO 2006/2012 3000 BR BKN005
       
LFOV 191030Z AUTO 12004KT 0500 FG VV/// ///TCU 04/04 Q1009
LFST 191030Z AUTO VRB02KT 8000 NSC 01/M03 Q1016 NOSIG
TAF LFST 190500Z 1906/2006 35004KT 7000 NSC 
     TEMPO 1906/1910 4000 BR 
     PROB30 
     TEMPO 1906/1910 1500 BCFG BKN002 
     BECMG 1910/1912 CAVOK 
     BECMG 2004/2006 -SN FEW020 BKN040
       
LFSN 191030Z AUTO VRB01KT 1100 R03/1500D BCFG VV/// M03/M03 Q1015
LFOE 191030Z AUTO 10008KT 6000 OVC012 M00/M01 Q1010 TEMPO BKN005
TAF LFOE 190800Z 1909/2009 13005KT 9999 BKN010 BKN015 
     TEMPO 1909/1915 -SN BKN005 
     TEMPO 1915/2009 3000 -RADZ OVC003
       
LFQG 191030Z AUTO 12007KT 9999 BKN022 OVC027 M00/M03 Q1013
LFTW 191030Z AUTO 03006KT 360V060 CAVOK 06/M02 Q1015 NOSIG
TAF LFTW 190800Z 1909/2009 VRB04KT CAVOK 
     BECMG 2000/2002 BKN025 
     TEMPO 2003/2009 SHRA BKN020
       
LFRB 191030Z AUTO 24006KT 9999 FEW023/// SCT031/// BKN100/// ///TCU 09/07 Q1007 TEMPO 4000 SHRA
TAF LFRB 190500Z 1906/2012 27005KT 9999 SCT025 BKN040 OVC070 
     TEMPO 1906/2006 4000 SHRA FEW015TCU BKN025
       
LFGA 191030Z AUTO VRB03KT CAVOK M00/M04 Q1016
LFBH 191030Z AUTO 17006KT 9999 FEW020 SCT047 09/08 Q1011 TEMPO 3000 SHRA BKN015CB
TAF LFBH 190500Z 1906/2006 17008KT 9999 BKN030 
     TEMPO 1906/1908 16010G20KT 4000 -SHRA BKN005 BKN020TCU 
     TEMPO 1908/1922 3000 SHRA BKN015TCU 
     PROB30 
     TEMPO 1912/1916 TSRA BKN015CB 
     TEMPO 2002/2006 3000 BR
       
LFBA 191030Z AUTO 09007KT 9999 OVC014/// ///TCU 06/05 Q1014 TEMPO 2000 -RADZ BR BKN006
TAF LFBA 190800Z 1909/1918 15005KT 8000 BKN016 
     TEMPO 1909/1915 2000 -RADZ BR BKN006
       
LFRJ 191030Z AUTO 22006KT 9999 FEW022/// ///TCU 09/07 Q1007
LFRH 191030Z AUTO 24005KT 9999 ///CB 09/07 Q1008 TEMPO 4000 SHRA
TAF AMD LFRH 190547Z 1906/2006 VRB03KT 6000 BKN035 
     TEMPO 1906/1909 2000 BR 
     PROB30 
     TEMPO 1906/1908 0500 BCFG VV/// 
     TEMPO 1906/1921 4000 SHRA BKN017TCU 
     TEMPO 1923/2006 3000 BR
       
LFRO 191030Z AUTO 00000KT 7000 -RA SCT008/// OVC012/// ///CB 08/07 Q1007 TEMPO 3000 SHRA SCT013CB BKN025
TAF AMD LFRO 191011Z 1910/2006 24007KT 9999 FEW025 SCT035 
     TEMPO 1910/2006 3000 SHRA SCT013CB BKN025 
     BECMG 1921/1924 34012KT
       
LFPB 191030Z AUTO 12007KT CAVOK 00/M03 Q1012 TEMPO 2000 -SN BKN002
TAF AMD LFPB 190947Z 1909/2006 12005KT CAVOK 
     BECMG 1911/1914 BKN007 
     PROB40 
     TEMPO 1911/1916 4000 -SNRA BKN003 
     PROB30 
     TEMPO 1911/1913 -FZRA 
     PROB30 
     TEMPO 1911/1916 2000 -SN BKN002 
     BECMG 1917/1920 4000 DZRA BKN003 
     PROB30 
     TEMPO 1917/1921 2000 -RASN
       
LFMC 191030Z AUTO 00000KT 9999 FEW037 SCT047 02/01 Q1015
LFTH 191030Z AUTO VRB03KT CAVOK 11/04 Q1014 TEMPO SHRA
TAF LFTH 190800Z 1909/2009 08010KT 9999 BKN030 
     TEMPO 1911/2009 SHRA
       
LFAT 191030Z AUTO 13010KT CAVOK 02/M01 Q1012 NOSIG
TAF LFAT 190800Z 1909/1918 12010KT CAVOK 
     TEMPO 1915/1918 4000 -SN OVC008 
     PROB40 
     TEMPO 1915/1918 FZDZ
       
LFMI 191030Z AUTO 35006KT CAVOK 07/M01 Q1014 NOSIG
TAF LFMI 190800Z 1909/2009 VRB05KT CAVOK 
     BECMG 1922/1924 08010KT BKN014
       
LFRI 191030Z AUTO 16006KT 9999 FEW025 BKN038 BKN088 08/08 Q1010 TEMPO SHRA BKN020TCU
TAF LFRI 190500Z 1906/2006 18005KT 0800 BCFG VV/// 
     BECMG 1906/1908 5000 NSW SCT025 BKN060 
     TEMPO 1908/1920 SHRA BKN020TCU 
     BECMG 1922/1924 3000 BR BKN003 
     PROB30 
     TEMPO 2000/2006 0500 FG VV///
       
LFQQ 191030Z AUTO 13008KT CAVOK 01/M02 Q1013 NOSIG
TAF LFQQ 190500Z 1906/2012 15005KT 7000 NSC 
     BECMG 1920/1922 OVC010 
     PROB30 1921/1924 3000 SN 
     TEMPO 2004/2008 1500 BR OVC002 
     BECMG 2008/2010 BKN007 
     BECMG 2010/2012 BKN013
       
LFSD 191030Z AUTO VRB01KT 0350 R35/0450N FZFG VV/// M04/M04 Q1015
LFHP 191030Z AUTO 00000KT CAVOK M01/M05 Q1012
LFBT 191030Z AUTO 25006KT 210V280 9999 FEW042 BKN074 08/03 Q1014 NOSIG
TAF LFBT 190500Z 1906/2006 VRB03KT 9999 BKN050 
     TEMPO 1906/1909 4000 -RA BKN014 
     BECMG 1906/1908 24007KT 
     BECMG 1910/1912 VRB03KT SCT060 
     TEMPO 2003/2006 4000 -RA BKN030
       
LFMD 191030Z AUTO 02004KT 310V060 9999 OVC056 09/03 Q1014 NOSIG
TAF LFMD 190800Z 1909/2009 VRB04KT 9999 BKN060 
     BECMG 1910/1913 28007KT 
     PROB30 
     TEMPO 1916/1921 4000 RA BKN020 
     BECMG 1919/1921 VRB03KT 
       
LFJR 191030Z AUTO 15005KT 130V190 6000 BKN003/// OVC007/// ///TCU 06/06 Q1010 TEMPO 4000 -SHRA BKN016CB
TAF LFJR 190800Z 1909/1918 16004KT 8000 BKN008 BKN020 
     TEMPO 1909/1910 3000 BR BKN003 
     BECMG 1910/1912 SCT012 BKN016 
     TEMPO 1909/1918 4000 -SHRA BKN016CB
       
LFCR 191030Z AUTO 13004KT 9999 BKN025 OVC033 04/01 Q1013 NOSIG
TAF LFCR 190500Z 1906/2006 12006KT 6000 BKN016 
     TEMPO 1906/1909 1500 BCFG BKN003 
     TEMPO 1910/1916 20006KT 
     BECMG 1920/1922 CAVOK
       
LFRC 191030Z AUTO 17010KT 0600 0400 R28/1200D FG VV/// 04/03 Q1007 TEMPO 4000 SHRA BKN005 BKN015TCU
TAF AMD LFRC 190902Z 1909/1918 16010KT 4000 BR OVC005 
     TEMPO 1909/1915 2000 BR BKN002 
     PROB40 
     TEMPO 1909/1911 0800 FG VV/// 
     TEMPO 1909/1918 4000 SHRA BKN005 BKN015TCU 
     BECMG 1915/1917 17005KT 9999 BKN015
       
LFCK 191030Z AUTO VRB03KT 9999 OVC045 07/04 Q1015 NOSIG
TAF LFCK 190800Z 1909/1918 VRB03KT CAVOK
       
LFMT 191030Z AUTO VRB03KT CAVOK 07/M05 Q1015 NOSIG
TAF LFMT 190800Z 1909/2009 VRB04KT CAVOK 
     BECMG 1922/1924 02010KT 
     BECMG 2000/2002 BKN025 
     TEMPO 2002/2009 SHRA BKN020
       
LFBD 191030Z AUTO 18005KT 160V220 9999 BKN004 BKN026 BKN047 08/07 Q1013 TEMPO 3000 SHRA BKN015CB
TAF AMD LFBD 190610Z 1906/2012 19006KT 9999 BKN030 TX11/1915Z TN06/1906Z 
     TEMPO 1906/1909 3000 SHRA BKN003 BKN020TCU 
     TEMPO 1909/1916 3000 SHRA BKN015TCU 
     PROB30 
     TEMPO 1912/1916 TSRA BKN015CB 
     TEMPO 2000/2010 4000 -RA BKN005 BKN030
       
LFJL 191030Z AUTO 11008KT CAVOK M00/M03 Q1015 NOSIG
TAF LFJL 190500Z 1906/2006 11008KT CAVOK 
     PROB30 
     TEMPO 1909/1912 SCT010 
     BECMG 2000/2002 4000 -SN BKN020 
     PROB40 
     TEMPO 2003/2006 1200 SN BKN002 OVC008
       
LFRV 191030Z AUTO 23003KT 200V270 9999 FEW042 BKN086 BKN110 08/07 Q1008
LFLP 191030Z AUTO 00000KT CAVOK 02/M03 Q1015 NOSIG
TAF LFLP 190800Z 1909/2009 VRB03KT CAVOK 
     PROB30 
     TEMPO 2003/2009 0600 BCFG
       
LFSG 191030Z AUTO VRB02KT 0500 R26/0700U FZFG VV/// M05/M05 Q1015
LFBM 191030Z AUTO 22005KT 180V260 9999 FEW041 10/07 Q1014 TEMPO 4000 SHRA SCT020TCU
TAF LFBM 190800Z 1909/2009 22005KT 9999 SCT020 BKN040 
     TEMPO 1909/1915 4000 SHRA SCT020TCU 
     PROB30 
     TEMPO 2006/2009 4000 BR BKN005
       
LFRZ 191030Z AUTO 20006KT 9999 BKN049/// BKN070/// ///TCU 10/08 Q1009 TEMPO SHRA
TAF LFRZ 190500Z 1906/2006 VRB03KT 5000 SCT025 BKN080 
     TEMPO 1906/1920 SHRA BKN020TCU 
     BECMG 2001/2003 3000 BR BKN002
       
LFRS 191030Z AUTO 18006KT 9999 ///TCU 08/08 Q1009 TEMPO 4000 SHRA
TAF LFRS 190500Z 1906/2012 VRB04KT 0500 FG VV/// 
     BECMG 1906/1907 6000 NSW SCT002 SCT025 BKN060 
     TEMPO 1907/1921 4000 SHRA BKN018TCU 
     BECMG 1922/1924 3000 BR BKN003 
     TEMPO 2000/2009 0500 FG VV///
       
LFSO 191030Z AUTO 14003KT 110V170 9000 NSC M01/M04 Q1014
LFOH 191030Z AUTO 12011KT 9999 OVC011/// ///TCU 02/00 Q1009 TEMPO 4000 -SN BECMG OVC010
TAF AMD LFOH 190805Z 1908/2006 15013KT 9999 BKN030 SCT030TCU 
     TEMPO 1908/1912 4000 -SN 
     PROB40 
     TEMPO 1908/1912 FZDZ 
     BECMG 1911/1913 OVC010 
     TEMPO 1917/2006 2000 DZ OVC002
       
LFPO 191030Z 14007KT 9999 BKN046 BKN096 M00/M02 Q1012 TEMPO 2500 FZRA BKN005
TAF AMD LFPO 190722Z 1907/2012 13004KT CAVOK 
     TEMPO 1910/1915 4000 RASN BKN012 
     PROB30 
     TEMPO 1910/1913 2000 -FZRA BKN007 
     TEMPO 1915/2012 4000 -RA BKN008 
     PROB40 
     TEMPO 1922/2012 2000 -DZRA OVC005
       
LFBP 191030Z AUTO VRB02KT 9999 FEW064 BKN074 10/06 Q1014 NOSIG
TAF LFBP 190500Z 1906/2006 18005KT 9999 BKN040 
     PROB30 
     TEMPO 1906/1909 4000 -RA 
     TEMPO 1912/1921 CAVOK 
     TEMPO 1923/2006 4000 -RA BKN030
       
LFRD 191030Z AUTO 19008KT 9000 FEW004 SCT037 OVC046 06/06 Q1008 TEMPO 4000 SHRA BKN015CB
TAF AMD LFRD 191005Z 1910/2006 17010KT 4000 BR OVC006 
     TEMPO 1910/1912 2000 BR BKN002 
     BECMG 1912/1914 23010KT 9999 NSW BKN030 
     TEMPO 1912/2003 4000 SHRA BKN015CB 
     BECMG 1922/1924 VRB05KT 
     PROB30 
     TEMPO 2003/2006 5000 SHRA BKN015
       
LFRU 191030Z AUTO 22006KT 180V250 9999 FEW024/// SCT046/// BKN068/// ///CB 09/07 Q1007
LFRQ 191030Z AUTO 21003KT 9999 FEW040/// SCT086/// ///TCU 08/08 Q1008 TEMPO 3000 SHRA SCT015CB SCT030
TAF AMD LFRQ 191004Z 1910/2006 VRB03KT 9999 FEW025 SCT050 
     TEMPO 1910/1911 2000 BR 
     TEMPO 1910/2006 3000 SHRA SCT015CB SCT030 
     BECMG 1915/1918 28005KT 
     BECMG 2003/2006 36007KT
       
LFKB 191030Z AUTO 22007KT 9999 FEW068 SCT100 BKN230 11/02 Q1014 BECMG 34010KT
TAF LFKB 190800Z 1909/2009 23008KT 9999 FEW030 BKN220 TX13/1913Z TN04/2005Z 
     BECMG 1909/1911 34010KT 
     TEMPO 1912/1921 SCT035 BKN090 
     BECMG 1917/1918 23006KT
       
LFRL 191030Z AUTO 24006KT 9999 FEW022/// BKN042/// BKN048/// ///TCU 11/06 Q1008
LFML 191030Z AUTO 27003KT CAVOK 06/01 Q1015 NOSIG
TAF LFML 190800Z 1909/2015 VRB05KT CAVOK TX11/2015Z TN03/2005Z 
     BECMG 1922/1924 09010KT BKN014 
     BECMG 2010/2012 BKN020
       
LFQA 191030Z AUTO 13009KT CAVOK 00/M02 Q1014
LFMP 191030Z AUTO VRB03KT 9999 BKN092/// 08/02 Q1015 NOSIG
TAF LFMP 190800Z 1909/2009 VRB04KT 9999 FEW050 
     TEMPO 1913/1917 12010KT 
     BECMG 2003/2005 32010KT
       
LFSI 191030Z AUTO 12007KT CAVOK 01/M04 Q1014
TAF LFSI 190800Z 1909/2009 VRB02KT CAVOK 
     BECMG 1921/1923 2000 SN BKN005 OVC012
       
LFBE 191030Z AUTO 15005KT 110V190 9999 OVC009 07/06 Q1013 TEMPO 3000 -RA
TAF LFBE 190500Z 1906/2006 16005KT 9999 BKN020 
     PROB40 1906/1918 3000 -RA OVC007 
     PROB40 2002/2006 3000 -RA BKN007
       
LFKC 191030Z AUTO 18005KT 9999 FEW060 OVC078 09/05 Q1014 TEMPO 36010KT RA
TAF LFKC 190800Z 1909/2009 19005KT 9999 FEW060 BKN250 TX12/1913Z TN03/2006Z 
     BECMG 1909/1911 SCT040 BKN090 
     TEMPO 1909/1915 7000 RA BKN025 BKN050 
     TEMPO 1911/1916 36010KT
       
LFLL 191030Z VRB02KT 0450 R35L/0900U R17R/0400N R35R/0600U R17L/0900U FZFG BKN001 M02/M02 Q1015 BECMG 6000 NSW FEW006
TAF AMD LFLL 190904Z 1909/2012 VRB02KT 0300 FZFG VV/// 
     BECMG 1910/1912 6000 NSW FEW006 
     BECMG 1920/1922 16007KT 
     TEMPO 2008/2012 -RA BKN015
       
LFLS 191030Z AUTO 08006KT 6000 NSC 01/00 Q1014 NOSIG
TAF AMD LFLS 191013Z 1910/2009 VRB02KT 2000 BR SCT005 
     BECMG 1910/1912 CAVOK
       
LFSX 191030Z AUTO 15008KT CAVOK 01/M03 Q1015
LFLN 191030Z AUTO 00000KT CAVOK M01/M03 Q1014 BECMG 18010KT
TAF LFLN 190800Z 1909/1918 00000KT 7000 NSC 
     BECMG 1910/1912 18010KT CAVOK
       
LFMY 191030Z AUTO VRB01KT CAVOK 09/00 Q1014
LFMK 191030Z AUTO VRB02KT 9999 FEW060 BKN072 05/04 Q1015 NOSIG
TAF LFMK 190800Z 1909/2009 28005KT 9999 FEW040 
     BECMG 1916/1918 09010KT 
     BECMG 2000/2002 BKN015
       
LFKS 191030Z AUTO VRB03KT CAVOK 13/03 Q1013
LFRG 191030Z AUTO 13008KT 080V190 9999 BKN007/// BKN012/// OVC054/// ///CB 02/01 Q1009 TEMPO OVC007
TAF LFRG 190800Z 1909/1918 14010KT 9999 BKN030 
     TEMPO 1909/1911 4000 RA BKN005 
     PROB30 
     TEMPO 1909/1911 FZRA 
     BECMG 1909/1911 OVC012 
     TEMPO 1911/1918 OVC007 
     TEMPO 1915/1918 4000 SHRA BKN005 BKN015TCU 
     BECMG 1916/1918 14005KT
       
LFRN 191030Z AUTO VRB02KT 4200 BR OVC004 06/06 Q1009 TEMPO SHRA BKN005 BKN015TCU
TAF AMD LFRN 190851Z 1908/2006 VRB05KT 4000 BR BKN006 
     TEMPO 1909/1912 2000 BR BKN002 
     PROB40 
     TEMPO 1909/1911 0500 FG VV/// 
     PROB30 
     TEMPO 1909/1914 4000 SHRA BKN005 BKN015TCU 
     BECMG 1912/1914 BKN030 
     TEMPO 1914/1924 4000 SHRA BKN015TCU 
     PROB30 
     TEMPO 2000/2003 5000 SHRA 
     TEMPO 2000/2006 3000 BR
       
LFKF 191030Z AUTO 26010KT 9999 FEW036 12/04 Q1014 NOSIG
TAF LFKF 190800Z 1909/2009 26008KT 9999 FEW040 BKN250 
     TEMPO 1915/1924 SCT040 BKN080 
     TEMPO 1921/2009 05006KT
       
LFGJ 191030Z AUTO VRB03KT 5000 BR OVC003 M02/M03 Q1015 BECMG NSC
TAF AMD LFGJ 190951Z 1909/1918 VRB03KT 0700 FZFG OVC002 
     BECMG 1910/1912 3000 BR BKN008 
     BECMG 1912/1915 CAVOK
       
LFOB 191030Z AUTO 13009KT 9999 FEW011 M00/M02 Q1012 TEMPO 4000 SN OVC005
TAF AMD LFOB 190820Z 1908/2006 13007KT CAVOK 
     BECMG 1912/1914 OVC010 
     TEMPO 1911/1920 4000 SN OVC005 
     PROB40 
     TEMPO 1914/1920 FZDZ 
     TEMPO 1920/2006 1500 DZRA OVC002 
     PROB30 
     TEMPO 1921/2006 0200 FG VV///
       
LFPN 191030Z AUTO 13009KT 9999 FEW030 BKN037 BKN044 M01/M02 Q1011 TEMPO -FZRA
TAF LFPN 190800Z 1909/1918 13005KT CAVOK 
     BECMG 1909/1911 BKN020 
     TEMPO 1909/1911 1200 SN BKN003 
     PROB40 
     TEMPO 1910/1913 -FZRA 
     TEMPO 1913/1918 3000 RA BKN005
       
LFOT 191030Z AUTO 15006KT 3700 BR OVC003 05/05 Q1010 TEMPO 1500 -RADZ VV///
TAF AMD LFOT 190918Z 1909/2006 13008KT 6000 BKN007 
     TEMPO 1909/1913 4000 BR BKN003 
     PROB30 
     TEMPO 1909/1913 1500 -RADZ VV/// 
     BECMG 1913/1915 BKN015 
     TEMPO 1915/1924 3000 SHRA BKN012 
     BECMG 2000/2002 4000 BR BKN007 
     PROB30 
     TEMPO 2003/2006 OVC004
       
LFOP 191030Z AUTO 12009KT 3500 BR BKN007 BKN031 OVC040 00/M01 Q1010 TEMPO 2000 FZDZ OVC004
TAF LFOP 190500Z 1906/2006 13010KT CAVOK 
     BECMG 1906/1908 OVC010 
     TEMPO 1908/1917 2000 FZDZ OVC004 
     BECMG 1917/1919 OVC002 
     TEMPO 1919/2006 2000 DZ 
     PROB40 
     TEMPO 1919/2006 0200 FG VV///
       
LFOK 191030Z AUTO 14011KT CAVOK 01/M02 Q1013 NOSIG
TAF LFOK 190500Z 1906/2006 13005KT CAVOK 
     BECMG 1916/1918 OVC010 
     TEMPO 1918/1922 1500 SN OVC003 
     TEMPO 1922/2006 1500 DZ OVC003 
     PROB30 1922/2006 FZDZ
       
LFPV 191030Z AUTO 13007KT 9999 BKN041 OVC052 M01/M02 Q1011 TEMPO 3000 RASN BECMG BKN003
TAF LFPV 190800Z 1909/2009 12006KT 9999 SCT005 
     BECMG 1910/1912 BKN003 
     TEMPO 1912/1915 3000 RASN 
     TEMPO 1915/2009 2000 RADZ BKN002
       
LFMU 191030Z AUTO VRB01KT CAVOK 07/03 Q1015 NOSIG
TAF LFMU 190800Z 1909/2009 32005KT CAVOK 
     TEMPO 1913/1918 18010KT 
     BECMG 1919/1922 02010KT BKN025
       
LFPM 191030Z AUTO 11008KT CAVOK M00/M02 Q1012